Latest Weather Observations for Willis Island

IDQ60801

Issued at 2:05 pm EST Tuesday 2 September 2014 (issued every 30 minutes, with the page automatically refreshed every 10 minutes)

About weather observations | Map of weather stations | Latest weather observations for QLD | Other Formats
Station Details ID: 200283 Name: WILLIS ISLAND Lat: -16.29 Lon: 149.97 Height: 9.29 m
Data from the previous 72 hours. | See also: Recent months at Willis Island
Date/Time
EST
Temp
°C
App
Temp
°C
Dew
Point
Rel
Hum
%
Delta-T
°C
Wind Press
QNH
hPa
Press
MSL
hPa
Rain
since 9 am
mm
Dir
 
Spd
km/h
Gust
km/h
Spd
kts
Gust
kts
02/02:00pm 25.0 22.5 18.0 65 4.4 S 28 32 15 17 1014.3 - 0.0
02/01:30pm 26.0 24.8 18.3 62 4.9 S 22 28 12 15 1014.6 - 0.0
02/01:00pm 25.7 24.2 17.7 61 5.0 S 22 28 12 15 1015.0 - 0.0
02/12:30pm 25.4 23.3 18.1 64 4.6 S 26 30 14 16 1015.4 - 0.0
02/12:00pm 25.3 23.0 17.6 62 4.8 S 26 30 14 16 1015.7 1015.7 0.0
02/11:30am 25.4 23.6 17.9 63 4.7 SSE 24 28 13 15 1016.2 - 0.0
02/11:00am 25.2 22.8 18.2 65 4.4 S 28 32 15 17 1016.7 - 0.0
02/10:30am 24.9 22.9 18.2 66 4.2 S 26 30 14 16 1016.9 - 0.0
02/10:00am 24.8 22.6 17.9 65 4.3 SSE 26 30 14 16 1017.1 - 0.0
02/09:30am 24.8 22.8 18.3 67 4.1 SSE 26 30 14 16 1017.3 - 0.0
02/09:00am 24.7 22.8 18.5 68 3.9 SSE 26 32 14 17 1017.2 1017.2 0.0
02/08:30am 24.2 22.2 18.3 69 3.7 SSE 26 30 14 16 1017.1 - 0.0
02/08:00am 23.7 22.2 18.5 72 3.3 SSE 24 28 13 15 1017.1 - 0.0
02/07:30am 23.6 21.6 18.3 72 3.3 SSE 26 30 14 16 1016.5 - 0.0
02/07:00am 23.2 20.7 18.1 73 3.2 SSE 28 32 15 17 1016.1 - 0.0
02/06:30am 23.2 20.8 18.3 74 3.1 S 28 32 15 17 1016.3 - 0.0
02/06:00am 23.3 21.5 18.7 75 2.9 SSE 26 30 14 16 1016.0 1016.0 0.0
02/05:30am 23.2 22.0 18.3 74 3.1 SSE 22 28 12 15 1015.9 - 0.0
02/05:00am 23.0 21.3 18.0 73 3.1 SSE 24 28 13 15 1015.6 - 0.0
02/04:30am 22.9 21.3 18.3 75 2.9 SE 24 30 13 16 1015.2 - 0.0
02/04:00am 22.9 21.3 18.3 75 2.9 SE 24 26 13 14 1015.4 - 0.0
02/03:30am 22.8 21.1 18.0 74 3.0 SE 24 28 13 15 1015.3 - 0.0
02/03:00am 22.9 21.3 18.4 76 2.8 SE 24 28 13 15 1015.4 1015.4 0.0
02/02:30am 22.9 22.0 18.3 75 2.9 ESE 20 26 11 14 1015.5 - 0.0
02/02:00am 22.8 21.4 18.0 74 3.0 SE 22 26 12 14 1015.5 - 0.0
02/01:30am 22.9 21.7 18.4 76 2.8 SE 22 26 12 14 1015.9 - 0.0
02/01:00am 22.8 21.1 18.2 75 2.9 SE 24 28 13 15 1016.0 - 0.0
02/12:30am 22.9 21.6 18.1 74 3.0 SE 22 26 12 14 1016.3 - 0.0
02/12:00am 22.9 21.4 17.7 72 3.2 SE 22 24 12 13 1016.6 1016.6 0.0
 
Date/Time
EST
Temp
°C
App
Temp
°C
Dew
Point
Rel
Hum
%
Delta-T
°C
Wind Press
QNH
hPa
Press
MSL
hPa
Rain
since 9 am
mm
Dir
 
Spd
km/h
Gust
km/h
Spd
kts
Gust
kts
01/11:30pm 23.0 21.6 18.0 73 3.1 SE 22 28 12 15 1016.9 - 0.0
01/11:00pm 23.1 21.2 17.6 71 3.4 ESE 24 28 13 15 1016.9 - 0.0
01/10:30pm 23.1 21.3 17.8 72 3.3 SE 24 28 13 15 1016.9 - 0.0
01/10:00pm 23.1 20.8 17.6 71 3.4 SE 26 30 14 16 1016.9 - 0.0
01/09:30pm 23.3 20.9 18.2 73 3.2 SE 28 33 15 18 1016.8 - 0.0
01/09:00pm 23.2 20.3 17.9 72 3.3 SE 30 33 16 18 1016.7 1016.7 0.0
01/08:30pm 23.4 20.5 18.0 71 3.4 SE 30 35 16 19 1016.5 - 0.0
01/08:00pm 23.4 20.5 18.0 71 3.4 SE 30 35 16 19 1016.1 - 0.0
01/07:30pm 23.2 20.4 18.1 73 3.2 SE 30 35 16 19 1016.0 - 0.0
01/07:00pm 23.2 19.8 17.6 71 3.5 SE 32 35 17 19 1015.8 - 0.0
01/06:30pm 23.3 20.3 17.7 71 3.5 SE 30 35 16 19 1015.5 - 0.0
01/06:00pm 23.2 20.4 17.4 70 3.6 ESE 28 33 15 18 1015.3 1015.3 0.0
01/05:30pm 23.4 20.0 17.6 70 3.6 SE 32 35 17 19 1015.0 - 0.0
01/05:00pm 23.8 20.6 17.3 67 4.0 SE 30 35 16 19 1014.9 - 0.0
01/04:30pm 24.3 21.4 17.9 67 4.0 SE 30 35 16 19 1014.9 - 0.0
01/04:00pm 24.2 21.1 17.6 66 4.1 SE 30 33 16 18 1014.6 - 0.0
01/03:30pm 24.9 22.0 17.9 65 4.4 SE 30 33 16 18 1014.4 - 0.0
01/03:00pm 24.9 22.0 17.9 65 4.4 SE 30 35 16 19 1014.2 1014.2 0.0
01/02:30pm 25.4 22.7 18.5 65 4.4 ESE 30 35 16 19 1014.1 - 0.0
01/02:00pm 25.5 22.3 18.2 64 4.6 ESE 32 35 17 19 1014.2 - 0.0
01/01:30pm 25.6 22.2 18.2 63 4.7 SE 33 39 18 21 1014.8 - 0.0
01/01:00pm 26.0 22.9 18.3 62 4.9 SE 32 37 17 20 1015.5 - 0.0
01/12:30pm 26.0 22.8 18.6 63 4.7 SE 33 39 18 21 1015.9 - 0.0
01/12:00pm 25.7 22.4 18.4 64 4.6 ESE 33 39 18 21 1015.7 1015.7 0.0
01/11:30am 25.6 22.1 18.7 65 4.4 ESE 35 39 19 21 1016.2 - 0.0
01/11:00am 25.6 22.4 18.5 65 4.5 ESE 33 37 18 20 1016.2 - 0.0
01/10:30am 24.5 21.3 18.5 69 3.8 SE 33 39 18 21 1016.5 - 0.0
01/10:00am 25.3 22.4 18.9 67 4.1 ESE 32 37 17 20 1016.8 - 0.0
01/09:30am 25.0 21.8 18.2 66 4.3 ESE 32 35 17 19 1017.0 - 0.0
01/09:00am 24.9 21.6 18.4 67 4.1 ESE 33 37 18 20 1017.0 1017.0 0.0
01/08:30am 24.0 20.9 18.3 70 3.6 SE 32 35 17 19 1016.9 - 0.0
01/08:00am 23.7 21.0 18.5 72 3.3 SE 30 33 16 18 1017.0 - 0.0
01/07:30am 23.5 20.7 18.1 71 3.4 SE 30 33 16 18 1016.6 - 0.0
01/07:00am 23.2 19.7 17.4 70 3.6 SE 32 37 17 20 1016.3 - 0.0
01/06:30am 23.2 20.4 18.1 73 3.2 SE 30 33 16 18 1015.9 - 0.0
01/06:00am 23.0 19.6 17.7 72 3.3 SE 32 37 17 20 1015.5 1015.5 0.0
01/05:30am 23.0 19.8 18.2 74 3.0 SE 32 37 17 20 1015.1 - 0.0
01/05:00am 22.7 19.2 17.5 72 3.2 SE 32 37 17 20 1014.8 - 0.0
01/04:30am 22.8 19.0 18.0 74 3.0 SE 35 41 19 22 1014.4 - 0.0
01/04:00am 23.0 19.4 18.6 76 2.8 SE 35 41 19 22 1014.3 - 0.0
01/03:30am 22.8 19.4 18.2 75 2.9 SE 33 39 18 21 1014.2 - 0.0
01/03:00am 22.8 19.0 18.2 75 2.9 SE 35 39 19 21 1014.1 1014.1 0.0
01/02:30am 22.9 19.2 18.4 76 2.8 SE 35 39 19 21 1014.3 - 0.0
01/02:00am 22.9 19.7 18.6 77 2.7 SE 33 39 18 21 1014.4 - 0.0
01/01:30am 23.1 20.0 18.8 77 2.7 SE 33 39 18 21 1014.7 - 0.0
01/01:00am 23.1 19.5 18.5 75 2.9 SE 35 41 19 22 1015.1 - 0.0
01/12:30am 22.9 18.4 18.3 75 2.9 SE 39 44 21 24 1015.4 - 0.0
01/12:00am 23.4 19.5 18.8 75 2.9 ESE 37 43 20 23 1015.6 1015.6 0.0
 
Date/Time
EST
Temp
°C
App
Temp
°C
Dew
Point
Rel
Hum
%
Delta-T
°C
Wind Press
QNH
hPa
Press
MSL
hPa
Rain
since 9 am
mm
Dir
 
Spd
km/h
Gust
km/h
Spd
kts
Gust
kts
31/11:30pm 23.4 20.0 18.1 72 3.3 SE 33 39 18 21 1015.8 - 0.0
31/11:00pm 23.3 19.5 18.2 73 3.2 SE 35 41 19 22 1015.8 - 0.0
31/10:30pm 23.4 19.6 18.1 72 3.3 SE 35 41 19 22 1016.0 - 0.0
31/10:00pm 23.6 19.6 18.5 73 3.2 ESE 37 43 20 23 1015.9 - 0.0
31/09:30pm 23.5 19.1 18.4 73 3.2 ESE 39 44 21 24 1016.0 - 0.0
31/09:00pm 23.7 19.8 18.8 74 3.1 SE 37 43 20 23 1015.8 1015.8 0.0
31/08:30pm 23.5 19.0 18.2 72 3.3 SE 39 44 21 24 1015.7 - 0.0
31/08:00pm 23.6 19.6 18.5 73 3.2 SE 37 44 20 24 1015.5 - 0.0
31/07:30pm 23.6 19.2 18.4 72 3.3 SE 39 44 21 24 1015.2 - 0.0
31/07:00pm 23.6 18.6 18.0 71 3.5 SE 41 46 22 25 1014.9 - 0.0
31/06:30pm 23.5 18.9 18.1 71 3.4 SE 39 46 21 25 1014.5 - 0.0
31/06:00pm 23.5 18.7 18.4 73 3.2 SE 41 48 22 26 1014.0 1014.0 0.0
31/05:30pm 23.7 19.1 17.9 70 3.6 SE 39 46 21 25 1013.8 - 0.0
31/05:00pm 23.7 19.1 18.1 71 3.5 SE 39 44 21 24 1013.7 - 0.0
31/04:30pm 23.8 18.9 17.3 67 4.0 SE 39 44 21 24 1013.5 - 0.0
31/04:00pm 24.3 20.0 17.9 67 4.0 SE 37 43 20 23 1013.3 - 0.0
31/03:30pm 24.5 20.4 18.3 68 3.9 SE 37 43 20 23 1013.2 - 0.0
31/03:00pm 24.0 19.2 17.6 67 4.0 SSE 39 44 21 24 1013.2 1013.2 0.0
31/02:30pm 24.4 19.8 18.0 67 4.0 SSE 39 44 21 24 1013.2 - 0.0
31/02:00pm 24.3 19.9 18.4 69 3.7 SSE 39 44 21 24 1013.3 - 0.0
31/01:30pm 24.1 20.1 18.6 71 3.5 SSE 37 43 20 23 1013.5 - 0.0
31/01:00pm 24.5 20.6 18.8 70 3.6 SSE 37 44 20 24 1013.8 - 0.0
31/12:30pm 24.7 20.2 18.2 67 4.1 SE 39 46 21 25 1014.1 - 0.0
31/12:00pm 24.8 21.2 18.5 68 4.0 SE 35 43 19 23 1014.6 1014.6 0.0
31/11:30am 25.0 21.5 18.7 68 4.0 SSE 35 41 19 22 1015.0 - 0.0
31/11:00am 25.1 21.2 17.8 64 4.6 SE 35 41 19 22 1015.5 - 0.0
31/10:30am 24.5 20.9 18.5 69 3.8 SE 35 41 19 22 1015.6 - 0.0
31/10:00am 25.1 21.9 18.6 67 4.1 SE 33 39 18 21 1015.6 - 0.0
31/09:30am 24.1 20.6 18.7 72 3.4 SE 35 39 19 21 1015.9 - 0.0
31/09:00am 23.6 20.1 18.7 74 3.1 SE 35 39 19 21 1016.1 1016.1 0.0
31/08:30am 23.6 20.2 19.0 75 2.9 SSE 35 41 19 22 1016.0 - 0.0
31/08:00am 23.4 20.1 19.2 77 2.7 SSE 35 41 19 22 1015.7 - 0.0
31/07:30am 23.1 20.1 19.0 78 2.6 SE 33 39 18 21 1015.4 - 0.0
31/07:00am 22.9 19.5 19.1 79 2.4 SSE 35 39 19 21 1015.1 - 0.0
31/06:30am 23.0 19.6 18.9 78 2.6 SE 35 39 19 21 1014.7 - 0.0
31/06:00am 22.8 19.5 18.3 76 2.8 SE 33 39 18 21 1014.4 1014.4 0.0
31/05:30am 22.6 19.5 18.8 79 2.4 SE 33 39 18 21 1014.0 - 0.0
31/05:00am 22.5 18.9 18.5 78 2.5 SE 35 43 19 23 1013.8 - 0.0
31/04:30am 22.5 19.5 19.0 80 2.2 SE 33 39 18 21 1013.9 - 0.0
31/04:00am 22.2 19.4 19.4 84 1.8 SSE 33 39 18 21 1013.7 - 0.0
31/03:30am 22.7 19.3 18.9 79 2.4 SE 35 41 19 22 1013.8 - 0.0
31/03:00am 22.2 18.8 19.0 82 2.0 SSE 35 41 19 22 1013.9 1013.9 0.0
31/02:30am 22.5 19.4 18.9 80 2.3 SSE 33 39 18 21 1014.1 - 0.0
31/02:00am 22.4 18.7 19.1 81 2.1 SE 37 43 20 23 1014.5 - 0.0
31/01:30am 22.4 20.3 18.9 80 2.2 SSE 28 33 15 18 1014.5 - 0.0
31/01:00am 22.0 17.7 18.7 81 2.1 SE 39 46 21 25 1014.8 - 0.0
31/12:30am 22.8 18.9 17.8 73 3.1 SE 35 41 19 22 1015.1 - 0.0
31/12:00am 22.6 18.8 18.1 76 2.8 SE 35 41 19 22 1015.6 1015.6 0.0
 
Date/Time
EST
Temp
°C
App
Temp
°C
Dew
Point
Rel
Hum
%
Delta-T
°C
Wind Press
QNH
hPa
Press
MSL
hPa
Rain
since 9 am
mm
Dir
 
Spd
km/h
Gust
km/h
Spd
kts
Gust
kts
30/11:30pm 22.5 18.3 19.0 80 2.2 ESE 39 46 21 25 1015.8 - 0.0
30/11:00pm 22.8 19.5 18.3 76 2.8 SE 33 43 18 23 1015.9 - 0.0
30/10:30pm 22.4 18.7 19.1 81 2.1 SE 37 41 20 22 1016.0 - 0.0
30/10:00pm 22.6 19.1 18.8 79 2.4 SE 35 46 19 25 1016.1 - 0.0
30/09:30pm 22.8 18.4 18.5 77 2.7 SE 39 46 21 25 1016.4 - 0.0
30/09:00pm 23.2 19.5 18.4 74 3.0 SE 35 41 19 22 1016.3 1016.3 0.0
30/08:30pm 23.0 19.0 18.4 75 2.9 SE 37 43 20 23 1016.4 - 0.0
30/08:00pm 23.3 19.7 18.5 74 3.0 SE 35 41 19 22 1016.3 - 0.0
30/07:30pm 23.2 19.2 18.4 74 3.0 SE 37 43 20 23 1016.0 - 0.0
30/07:00pm 23.2 19.1 18.3 74 3.1 SE 37 43 20 23 1015.7 - 0.0
30/06:30pm 23.3 19.4 18.7 75 2.9 SE 37 43 20 23 1015.5 - 0.0
30/06:00pm 23.3 19.3 18.4 74 3.1 SE 37 43 20 23 1015.3 1015.3 0.0
30/05:30pm 23.4 19.7 18.3 73 3.2 SE 35 41 19 22 1015.1 - 0.0
30/05:00pm 23.4 19.7 18.3 73 3.2 ESE 35 41 19 22 1014.6 - 0.0
30/04:30pm 24.0 20.1 17.9 68 3.8 SE 35 43 19 23 1014.4 - 0.0
30/04:00pm 24.1 19.6 17.3 65 4.2 SE 37 43 20 23 1014.4 - 0.0
30/03:30pm 24.6 21.0 18.6 69 3.8 SE 35 43 19 23 1014.1 - 0.0
30/03:00pm 24.9 21.7 18.6 68 4.0 SE 33 39 18 21 1014.1 1014.1 0.0
30/02:30pm 24.3 21.0 18.4 69 3.7 SE 33 41 18 22 1013.8 - 0.0

Other Formats:

Comma delimited format used in spreadsheet applications
http://www.bom.gov.au/fwo/IDQ60801/IDQ60801.94299.axf

JavaScript Object Notation format (JSON) in row-major order
http://www.bom.gov.au/fwo/IDQ60801/IDQ60801.94299.json